KCKB/CKB METAR and TAF weather

Enter ICAO airport designator
Station Type Date Time Source
KCKB METAR 2021/09/23 23:53 UTC NOAA

KCKB 232353Z 21008KT 10SM SCT060 OVC075 14/08 A3000 RMK AO2 SLP151 T01440078 10167 20144 53015


Station Type Date Time Source
KCKB Decoded METAR 2021/09/23 23:53 UTC NOAA

HARRISON/MARION REGIONAL, WV, United States (KCKB) 39-18N 080-13W 360M
Sep 23, 2021 - 07:53 PM EDT / 2021.09.23 2353 UTC
Wind: from the SSW (210 degrees) at 9 MPH (8 KT):0
Visibility: 10 mile(s):0
Sky conditions: overcast
Temperature: 57.9 F (14.4 C)
Dew Point: 46.0 F (7.8 C)
Relative Humidity: 64%
Pressure (altimeter): 30 in. Hg (1015 hPa)
Pressure tendency: 0.04 inches (1.5 hPa) higher than three hours ago
ob: KCKB 232353Z 21008KT 10SM SCT060 OVC075 14/08 A3000 RMK AO2 SLP151 T01440078 10167 20144 53015
cycle: 0

Station Type Date Time Source
KCKB TAF 2021/09/23 21:58 UTC NOAA

TAF
AMD KCKB 232057Z 2321/2418 24011KT P6SM BKN050
FM232300 VRB03KT P6SM FEW070
FM241300 22005KT P6SM SKC
FM241700 25008G14KT P6SM SKC

Example: see airport list